Time;durP1;ratioP1;P1;durP2;ratioP2;P2;SDS_P1;SDS_P2;PMS_P1;PMS_P2;Temp;Humidity;BMP_temperature;BMP_pressure;BME280_temperature;BME280_humidity;BME280_pressure;Samples;Min_cycle;Max_cycle;Signal;HPM_P1;HPM_P2
2023/05/06 00:02:55;;;;;;;;;;;;;;;;;;6249618;28;19928;-79
2023/05/06 00:05:57;;;;;;;;;;;;;;;;;;6249320;28;19935;-77
2023/05/06 00:08:58;;;;;;;;;;;;;;;;;;6264210;28;19920;-80
2023/05/06 00:12:00;;;;;;;;;;;;;;;;;;6246070;28;19920;-78
2023/05/06 00:15:01;;;;;;;;;;;;;;;;;;6241440;28;20264;-78
2023/05/06 00:18:02;;;;;;;;;;;;;;;;;;6252049;28;19928;-79
2023/05/06 00:21:04;;;;;;;;;;;;;;;;;;6242812;28;19979;-77
2023/05/06 00:24:06;;;;;;;;;;;;;;;;;;6250802;28;19925;-78
2023/05/06 00:27:07;;;;;;;;;;;;;;;;;;6243439;28;20035;-78
2023/05/06 00:30:09;;;;;;;;;;;;;;;;;;6258569;28;19921;-79
2023/05/06 00:33:11;;;;;;;;;;;;;;;;;;6243910;28;19927;-80
2023/05/06 00:36:13;;;;;;;;;;;;;;;;;;6244550;28;20047;-78
2023/05/06 00:39:15;;;;;;;;;;;;;;;;;;6248001;28;19926;-79
2023/05/06 00:42:17;;;;;;;;;;;;;;;;;;6243506;28;20008;-79
2023/05/06 00:45:19;;;;;;;;;;;;;;;;;;6257752;28;19925;-80
2023/05/06 00:48:21;;;;;;;;;;;;;;;;;;6246892;28;19953;-79
2023/05/06 00:51:22;;;;;;;;;;;;;;;;;;6247271;28;19932;-75
2023/05/06 00:54:25;;;;;;;;;;;;;;;;;;6244220;28;19927;-79
2023/05/06 00:57:27;;;;;;;;;;;;;;;;;;6266686;28;19928;-80
2023/05/06 01:00:28;;;;;;;;;;;;;;;;;;6244755;28;19931;-77
2023/05/06 01:03:30;;;;;;;;;;;;;;;;;;6246422;28;19929;-79
2023/05/06 01:06:40;;;;;;;;;;;;;;;;;;6226124;28;20007;-80
2023/05/06 01:09:51;;;;;;;;;;;;;;;;;;6264904;28;19921;-78
2023/05/06 01:12:53;;;;;;;;;;;;;;;;;;6246699;28;19921;-80
2023/05/06 01:15:57;;;;;;;;;;;;;;;;;;6245374;28;19978;-78
2023/05/06 01:18:59;;;;;;;;;;;;;;;;;;6229623;28;19921;-78
2023/05/06 01:22:02;;;;;;;;;;;;;;;;;;6246749;28;19929;-80
2023/05/06 01:25:05;;;;;;;;;;;;;;;;;;6244984;28;20739;-80
2023/05/06 01:28:09;;;;;;;;;;;;;;;;;;6262667;28;20309;-79
2023/05/06 01:31:12;;;;;;;;;;;;;;;;;;6268206;28;19959;-78
2023/05/06 01:34:17;;;;;;;;;;;;;;;;;;6264907;28;19951;-80
2023/05/06 01:37:21;;;;;;;;;;;;;;;;;;6241604;28;19921;-80
2023/05/06 01:40:25;;;;;;;;;;;;;;;;;;6235571;28;20063;-77
2023/05/06 01:43:28;;;;;;;;;;;;;;;;;;6246218;28;19921;-80
2023/05/06 01:46:30;;;;;;;;;;;;;;;;;;6240354;28;19931;-78
2023/05/06 01:49:32;;;;;;;;;;;;;;;;;;6244699;28;20366;-79
2023/05/06 01:52:34;;;;;;;;;;;;;;;;;;6246975;28;19932;-77
2023/05/06 01:55:35;;;;;;;;;;;;;;;;;;6248918;28;19924;-77
2023/05/06 01:58:37;;;;;;;;;;;;;;;;;;6263953;28;19921;-78
2023/05/06 02:01:39;;;;;;;;;;;;;;;;;;6258041;28;19921;-78
2023/05/06 02:04:41;;;;;;;;;;;;;;;;;;6250430;28;19921;-79
2023/05/06 02:07:42;;;;;;;;;;;;;;;;;;6243903;28;19928;-80
2023/05/06 02:10:44;;;;;;;;;;;;;;;;;;6250858;28;19943;-79
2023/05/06 02:13:46;;;;;;;;;;;;;;;;;;6229256;28;20383;-79
2023/05/06 02:16:47;;;;;;;;;;;;;;;;;;6246289;28;20106;-79
2023/05/06 02:19:49;;;;;;;;;;;;;;;;;;6263496;28;19967;-77
2023/05/06 02:22:51;;;;;;;;;;;;;;;;;;6234917;28;19920;-78
2023/05/06 02:25:53;;;;;;;;;;;;;;;;;;6261548;28;19921;-79
2023/05/06 02:28:54;;;;;;;;;;;;;;;;;;6247670;28;19927;-79
2023/05/06 02:31:56;;;;;;;;;;;;;;;;;;6241576;28;20306;-77
2023/05/06 02:34:57;;;;;;;;;;;;;;;;;;6247721;28;19925;-80
2023/05/06 02:37:59;;;;;;;;;;;;;;;;;;6242565;28;19928;-79
2023/05/06 02:41:00;;;;;;;;;;;;;;;;;;6251155;28;20313;-78
2023/05/06 02:44:02;;;;;;;;;;;;;;;;;;6243194;28;19921;-77
2023/05/06 02:47:04;;;;;;;;;;;;;;;;;;6246087;28;19956;-78
2023/05/06 02:50:06;;;;;;;;;;;;;;;;;;6230307;28;20014;-79
2023/05/06 02:53:09;;;;;;;;;;;;;;;;;;6244435;28;19921;-80
2023/05/06 02:56:10;;;;;;;;;;;;;;;;;;6229000;28;19924;-77
2023/05/06 02:59:12;;;;;;;;;;;;;;;;;;6249323;28;20397;-79
2023/05/06 03:02:14;;;;;;;;;;;;;;;;;;6258331;28;20012;-78
2023/05/06 03:05:15;;;;;;;;;;;;;;;;;;6267545;28;20008;-78
2023/05/06 03:08:17;;;;;;;;;;;;;;;;;;6243694;28;19956;-80
2023/05/06 03:11:20;;;;;;;;;;;;;;;;;;6244280;28;19928;-78
2023/05/06 03:14:21;;;;;;;;;;;;;;;;;;6248078;28;19920;-77
2023/05/06 03:17:23;;;;;;;;;;;;;;;;;;6244326;28;19920;-80
2023/05/06 03:20:27;;;;;;;;;;;;;;;;;;6245264;28;19920;-79
2023/05/06 03:23:30;;;;;;;;;;;;;;;;;;6258848;28;19920;-77
2023/05/06 03:26:33;;;;;;;;;;;;;;;;;;6246445;28;19928;-79
2023/05/06 03:29:36;;;;;;;;;;;;;;;;;;6245061;28;19984;-80
2023/05/06 03:32:38;;;;;;;;;;;;;;;;;;6263342;28;19925;-78
2023/05/06 03:35:43;;;;;;;;;;;;;;;;;;6250270;28;19971;-80
2023/05/06 03:38:45;;;;;;;;;;;;;;;;;;6245578;28;19921;-77
2023/05/06 03:41:46;;;;;;;;;;;;;;;;;;6248541;28;20331;-79
2023/05/06 03:44:49;;;;;;;;;;;;;;;;;;6227185;28;19952;-77
2023/05/06 03:47:51;;;;;;;;;;;;;;;;;;6243748;28;19975;-78
2023/05/06 03:50:55;;;;;;;;;;;;;;;;;;6231550;28;19924;-78
2023/05/06 03:53:58;;;;;;;;;;;;;;;;;;6246254;28;19996;-78
2023/05/06 03:57:00;;;;;;;;;;;;;;;;;;6249418;28;19961;-79
2023/05/06 04:00:01;;;;;;;;;;;;;;;;;;6248481;28;19921;-78
2023/05/06 04:03:05;;;;;;;;;;;;;;;;;;6243317;28;19928;-78
2023/05/06 04:06:15;;;;;;;;;;;;;;;;;;6249748;28;20081;-78
2023/05/06 04:09:16;;;;;;;;;;;;;;;;;;6251247;28;19921;-78
2023/05/06 04:12:19;;;;;;;;;;;;;;;;;;6233169;28;20279;-80
2023/05/06 04:15:22;;;;;;;;;;;;;;;;;;6248303;28;19928;-79
2023/05/06 04:18:24;;;;;;;;;;;;;;;;;;6255935;28;19932;-79
2023/05/06 04:22:31;;;;;;;;;;;;;;;;;;6288922;27;19924;-80
2023/05/06 04:28:03;;;;;;;9.13;5.25;;;;;;;;;;6246420;28;20516;-78
2023/05/06 04:31:07;;;;;;;3.85;2.67;;;;;;;;;;6226704;28;20046;-77
2023/05/06 04:34:17;;;;;;;4.63;2.67;;;;;;;;;;6231281;28;20176;-79
2023/05/06 04:37:20;;;;;;;4.80;2.90;;;;;;;;;;6228818;28;20126;-77
2023/05/06 04:40:26;;;;;;;4.05;3.00;;;;;;;;;;6208905;28;20582;-78
2023/05/06 04:43:28;;;;;;;5.15;2.92;;;;;;;;;;6221882;28;20057;-77
2023/05/06 04:46:38;;;;;;;6.40;3.33;;;;;;;;;;6229673;28;20562;-77
2023/05/06 04:49:40;;;;;;;5.20;2.97;;;;;;;;;;6224804;28;20046;-77
2023/05/06 04:52:43;;;;;;;5.93;3.13;;;;;;;;;;6217346;28;20042;-78
2023/05/06 04:55:46;;;;;;;4.53;3.00;;;;;;;;;;6232978;28;20057;-78
2023/05/06 04:58:49;;;;;;;;;;;;;;;;;;6228367;28;20056;-79
2023/05/06 05:01:51;;;;;;;4.13;3.00;;;;;;;;;;6221714;28;19921;-78
2023/05/06 05:04:53;;;;;;;4.68;3.05;;;;;;;;;;6210214;28;20061;-78
2023/05/06 05:07:55;;;;;;;3.70;2.78;;;;;;;;;;6234142;28;20100;-77
2023/05/06 05:10:59;;;;;;;5.65;2.90;;;;;;;;;;6231902;28;20085;-78
2023/05/06 05:14:03;;;;;;;;;;;;;;;;;;6223205;28;20400;-78
2023/05/06 05:17:05;;;;;;;3.97;2.55;;;;;;;;;;6219238;28;19932;-78
2023/05/06 05:20:07;;;;;;;3.70;2.78;;;;;;;;;;6219147;28;20046;-78
2023/05/06 05:23:10;;;;;;;6.05;3.45;;;;;;;;;;6224106;28;20516;-78
2023/05/06 05:26:12;;;;;;;3.88;2.72;;;;;;;;;;6198808;28;20050;-78
2023/05/06 05:29:15;;;;;;;3.22;2.65;;;;;;;;;;6217852;28;20045;-79
2023/05/06 05:32:18;;;;;;;3.75;2.83;;;;;;;;;;6225110;28;20050;-78
2023/05/06 05:35:20;;;;;;;3.40;2.58;;;;;;;;;;6222707;28;20068;-78
2023/05/06 05:38:23;;;;;;;2.95;2.55;;;;;;;;;;6201564;28;20054;-80
2023/05/06 05:41:25;;;;;;;3.45;2.85;;;;;;;;;;6183933;28;20133;-78
2023/05/06 05:44:28;;;;;;;3.85;2.90;;;;;;;;;;6212746;28;20526;-79
2023/05/06 05:47:30;;;;;;;6.65;2.95;;;;;;;;;;6203092;28;20464;-78
2023/05/06 05:50:32;;;;;;;5.85;2.88;;;;;;;;;;6212888;28;20044;-78
2023/05/06 05:53:34;;;;;;;4.68;3.10;;;;;;;;;;6189370;28;20393;-79
2023/05/06 05:56:37;;;;;;;4.75;2.78;;;;;;;;;;6210332;28;20038;-78
2023/05/06 05:59:39;;;;;;;3.45;2.70;;;;;;;;;;6208953;28;20133;-79
2023/05/06 06:02:41;;;;;;;6.28;3.17;;;;;;;;;;6200583;28;20092;-79
2023/05/06 06:05:44;;;;;;;5.63;3.30;;;;;;;;;;6202689;28;20058;-79
2023/05/06 06:08:46;;;;;;;4.63;3.00;;;;;;;;;;6213080;28;20060;-78
2023/05/06 06:11:48;;;;;;;4.45;3.25;;;;;;;;;;6195087;28;20038;-78
2023/05/06 06:14:50;;;;;;;4.50;2.90;;;;;;;;;;6207926;28;20045;-79
2023/05/06 06:17:57;;;;;;;2.60;2.33;;;;;;;;;;6199113;28;20623;-80
2023/05/06 06:21:00;;;;;;;5.60;2.53;;;;;;;;;;6200417;28;20802;-78
2023/05/06 06:24:03;;;;;;;5.05;2.65;;;;;;;;;;6208450;28;20047;-78
2023/05/06 06:27:04;;;;;;;4.47;2.58;;;;;;;;;;6200926;28;20176;-78
2023/05/06 06:30:06;;;;;;;4.95;2.65;;;;;;;;;;6198734;28;20527;-78
2023/05/06 06:33:08;;;;;;;2.80;2.25;;;;;;;;;;6215610;28;20038;-79
2023/05/06 06:36:10;;;;;;;3.15;2.20;;;;;;;;;;6208588;28;20096;-78
2023/05/06 06:39:12;;;;;;;3.10;1.90;;;;;;;;;;6218911;28;20081;-77
2023/05/06 06:42:14;;;;;;;2.38;1.98;;;;;;;;;;6206760;28;20480;-77
2023/05/06 06:45:24;;;;;;;3.17;2.03;;;;;;;;;;6205544;28;20042;-79
2023/05/06 06:48:26;;;;;;;3.78;2.05;;;;;;;;;;6203750;28;20053;-79
2023/05/06 06:51:27;;;;;;;2.17;1.85;;;;;;;;;;6205574;28;20041;-79
2023/05/06 06:54:29;;;;;;;2.97;2.13;;;;;;;;;;6209924;28;20042;-80
2023/05/06 06:57:31;;;;;;;3.30;2.22;;;;;;;;;;6202716;28;20038;-80
2023/05/06 07:00:32;;;;;;;2.92;2.08;;;;;;;;;;6204914;28;20040;-79
2023/05/06 07:03:34;;;;;;;3.83;2.10;;;;;;;;;;6205021;28;20042;-80
2023/05/06 07:06:35;;;;;;;3.75;2.35;;;;;;;;;;6222862;28;20042;-79
2023/05/06 07:09:38;;;;;;;3.65;1.70;;;;;;;;;;6223875;28;20046;-78
2023/05/06 07:12:41;;;;;;;3.25;1.98;;;;;;;;;;6211069;28;20048;-78
2023/05/06 07:15:42;;;;;;;3.58;1.92;;;;;;;;;;6205803;28;20054;-78
2023/05/06 07:18:44;;;;;;;4.65;2.30;;;;;;;;;;6206565;28;20034;-79
2023/05/06 07:21:46;;;;;;;3.78;2.17;;;;;;;;;;6207581;28;20137;-79
2023/05/06 07:24:47;;;;;;;5.07;2.40;;;;;;;;;;6197755;28;20050;-78
2023/05/06 07:27:49;;;;;;;4.38;2.60;;;;;;;;;;6220813;28;20034;-78
2023/05/06 07:30:51;;;;;;;3.08;2.20;;;;;;;;;;6220647;28;20070;-80
2023/05/06 07:33:53;;;;;;;4.78;3.33;;;;;;;;;;6213014;28;20041;-81
2023/05/06 07:36:55;;;;;;;3.67;2.30;;;;;;;;;;6206539;28;20180;-79
2023/05/06 07:39:57;;;;;;;4.22;2.42;;;;;;;;;;6186887;28;20043;-78
2023/05/06 07:42:58;;;;;;;3.65;2.30;;;;;;;;;;6203392;28;20042;-79
2023/05/06 07:46:03;;;;;;;5.03;2.97;;;;;;;;;;6205093;28;20771;-79
2023/05/06 07:49:04;;;;;;;4.05;2.40;;;;;;;;;;6204185;28;20500;-78
2023/05/06 07:52:06;;;;;;;4.40;3.28;;;;;;;;;;6200354;28;20478;-78
2023/05/06 07:55:08;;;;;;;6.28;3.05;;;;;;;;;;6195206;28;20046;-78
2023/05/06 07:58:10;;;;;;;4.50;2.97;;;;;;;;;;6205916;28;20042;-79
2023/05/06 08:01:12;;;;;;;4.22;3.38;;;;;;;;;;6200087;28;20042;-78
2023/05/06 08:04:13;;;;;;;3.80;2.53;;;;;;;;;;6203704;28;20095;-79
2023/05/06 08:07:15;;;;;;;4.50;2.55;;;;;;;;;;6207392;28;20415;-78
2023/05/06 08:10:17;;;;;;;7.10;3.08;;;;;;;;;;6203379;28;20044;-80
2023/05/06 08:13:19;;;;;;;5.15;2.60;;;;;;;;;;6200957;28;20054;-79
2023/05/06 08:16:20;;;;;;;4.43;2.75;;;;;;;;;;6205603;28;20041;-78
2023/05/06 08:19:25;;;;;;;4.15;2.03;;;;;;;;;;6202175;28;20452;-79
2023/05/06 08:22:27;;;;;;;4.53;2.50;;;;;;;;;;6204701;28;20061;-79
2023/05/06 08:25:28;;;;;;;3.55;2.25;;;;;;;;;;6198065;28;20046;-77
2023/05/06 08:28:31;;;;;;;4.35;2.55;;;;;;;;;;6199322;28;20061;-78
2023/05/06 08:31:32;;;;;;;3.47;2.00;;;;;;;;;;6205866;28;20056;-79
2023/05/06 08:34:34;;;;;;;3.78;2.15;;;;;;;;;;6203755;28;20448;-79
2023/05/06 08:37:36;;;;;;;2.63;1.90;;;;;;;;;;6202206;28;20061;-78
2023/05/06 08:40:42;;;;;;;3.25;1.70;;;;;;;;;;6187413;28;20047;-79
2023/05/06 08:43:45;;;;;;;1.98;1.75;;;;;;;;;;6212059;28;20046;-78
2023/05/06 08:46:47;;;;;;;3.67;1.70;;;;;;;;;;6215679;28;20053;-78
2023/05/06 08:49:49;;;;;;;3.58;1.30;;;;;;;;;;6195087;28;20070;-78
2023/05/06 08:52:50;;;;;;;3.13;1.75;;;;;;;;;;6194168;28;20056;-78
2023/05/06 08:55:55;;;;;;;3.17;1.33;;;;;;;;;;6198247;28;20046;-78
2023/05/06 08:58:57;;;;;;;2.53;1.45;;;;;;;;;;6202845;28;20503;-78
2023/05/06 09:02:00;;;;;;;2.75;1.30;;;;;;;;;;6194873;28;20527;-78
2023/05/06 09:05:02;;;;;;;2.35;1.20;;;;;;;;;;6195106;28;20042;-78
2023/05/06 09:08:04;;;;;;;2.47;1.40;;;;;;;;;;6198456;28;20060;-78
2023/05/06 09:11:27;;;;;;;2.15;1.20;;;;;;;;;;6196376;28;20045;-79
2023/05/06 09:14:28;;;;;;;3.35;1.17;;;;;;;;;;6198580;28;20052;-78
2023/05/06 09:17:31;;;;;;;4.30;1.40;;;;;;;;;;6203791;28;20048;-79
2023/05/06 09:20:33;;;;;;;2.42;1.35;;;;;;;;;;6204736;28;20073;-79
2023/05/06 09:23:37;;;;;;;1.25;1.10;;;;;;;;;;6209655;28;20042;-78
2023/05/06 09:26:40;;;;;;;1.40;1.10;;;;;;;;;;6204734;28;20054;-78
2023/05/06 09:29:59;;;;;;;1.77;1.20;;;;;;;;;;6202112;28;20034;-78
2023/05/06 09:33:03;;;;;;;1.42;1.00;;;;;;;;;;6208430;28;20050;-79
2023/05/06 09:36:05;;;;;;;1.17;1.08;;;;;;;;;;6204338;28;20041;-79
2023/05/06 09:39:08;;;;;;;1.30;1.20;;;;;;;;;;6199540;28;20062;-79
2023/05/06 09:42:10;;;;;;;1.25;0.80;;;;;;;;;;6205142;28;20042;-79
2023/05/06 09:45:14;;;;;;;1.73;0.80;;;;;;;;;;6191988;28;20046;-78
2023/05/06 09:48:16;;;;;;;2.95;0.95;;;;;;;;;;6202548;28;20076;-79
2023/05/06 09:51:18;;;;;;;1.80;1.10;;;;;;;;;;6203681;28;20068;-78
2023/05/06 09:54:20;;;;;;;1.23;1.00;;;;;;;;;;6205844;28;20046;-78
2023/05/06 09:57:22;;;;;;;1.85;1.13;;;;;;;;;;6205776;28;20046;-79
2023/05/06 10:00:27;;;;;;;1.58;1.10;;;;;;;;;;6198600;28;20042;-78
2023/05/06 10:03:29;;;;;;;1.13;1.02;;;;;;;;;;6190557;28;20663;-79
2023/05/06 10:06:34;;;;;;;;;;;;;;;;;;6200090;28;20052;-77
2023/05/06 10:09:39;;;;;;;1.92;1.33;;;;;;;;;;6204833;28;20388;-79
2023/05/06 10:12:40;;;;;;;2.78;1.08;;;;;;;;;;6202235;28;20472;-72
2023/05/06 10:15:47;;;;;;;2.05;1.02;;;;;;;;;;6196212;28;20046;-72
2023/05/06 10:18:53;;;;;;;1.75;1.10;;;;;;;;;;6196504;28;20053;-72
2023/05/06 10:22:08;;;;;;;2.45;1.17;;;;;;;;;;6197440;28;20056;-72
2023/05/06 10:25:41;;;;;;;1.70;0.90;;;;;;;;;;6206028;28;20052;-71
2023/05/06 10:28:48;;;;;;;2.47;1.40;;;;;;;;;;6196179;28;20496;-72
2023/05/06 10:31:54;;;;;;;1.88;1.08;;;;;;;;;;6197467;28;20100;-77
2023/05/06 10:35:08;;;;;;;2.30;1.10;;;;;;;;;;6210887;28;20236;-78
2023/05/06 10:38:15;;;;;;;1.33;1.00;;;;;;;;;;6206939;28;20045;-77
2023/05/06 10:41:16;;;;;;;1.30;1.00;;;;;;;;;;6203424;28;20042;-76
2023/05/06 10:44:57;;;;;;;1.15;1.00;;;;;;;;;;6201228;28;20046;-77
2023/05/06 10:48:01;;;;;;;1.05;0.90;;;;;;;;;;6207165;28;20054;-78
2023/05/06 10:51:15;;;;;;;1.52;1.05;;;;;;;;;;6201248;28;20061;-77
2023/05/06 10:54:18;;;;;;;1.80;1.20;;;;;;;;;;6197784;28;20416;-72
2023/05/06 10:57:25;;;;;;;2.78;1.13;;;;;;;;;;6198102;28;20054;-73
2023/05/06 11:00:31;;;;;;;1.75;1.00;;;;;;;;;;6198418;28;20042;-73
2023/05/06 11:03:33;;;;;;;1.58;0.90;;;;;;;;;;6177648;28;20072;-73
2023/05/06 11:06:36;;;;;;;1.48;0.98;;;;;;;;;;6195132;28;20081;-72
2023/05/06 11:10:00;;;;;;;1.10;1.00;;;;;;;;;;6200297;28;20508;-74
2023/05/06 11:13:24;;;;;;;1.58;0.90;;;;;;;;;;6192431;28;20042;-72
2023/05/06 11:16:49;;;;;;;1.90;1.00;;;;;;;;;;6194114;28;20058;-72
2023/05/06 11:20:17;;;;;;;1.10;0.88;;;;;;;;;;6200187;28;20057;-72
2023/05/06 11:23:18;;;;;;;1.15;0.80;;;;;;;;;;6194890;28;20054;-71
2023/05/06 11:26:20;;;;;;;1.10;1.00;;;;;;;;;;6197230;28;20050;-72
2023/05/06 11:29:22;;;;;;;1.77;0.88;;;;;;;;;;6191525;28;20054;-72
2023/05/06 11:32:27;;;;;;;1.33;0.90;;;;;;;;;;6192303;28;20050;-72
2023/05/06 11:35:38;;;;;;;1.17;1.00;;;;;;;;;;6190379;28;20054;-72
2023/05/06 11:38:43;;;;;;;1.40;0.88;;;;;;;;;;6197287;28;20054;-77
2023/05/06 11:41:45;;;;;;;1.63;0.98;;;;;;;;;;6206555;28;20132;-78
2023/05/06 11:44:46;;;;;;;2.15;1.00;;;;;;;;;;6191198;28;20046;-78
2023/05/06 11:47:48;;;;;;;1.75;0.70;;;;;;;;;;6208833;28;20050;-78
2023/05/06 11:50:49;;;;;;;2.50;1.10;;;;;;;;;;6211604;28;20061;-78
2023/05/06 11:54:02;;;;;;;0.95;0.80;;;;;;;;;;6215240;28;20040;-76
2023/05/06 11:57:04;;;;;;;1.17;0.73;;;;;;;;;;6209541;28;20679;-78
2023/05/06 12:00:08;;;;;;;1.67;1.02;;;;;;;;;;6219563;28;20046;-78
2023/05/06 12:03:15;;;;;;;2.28;1.23;;;;;;;;;;6205989;28;20061;-78
2023/05/06 12:06:18;;;;;;;0.80;0.80;;;;;;;;;;6211530;28;20046;-77
2023/05/06 12:09:21;;;;;;;1.10;0.60;;;;;;;;;;6204459;28;20068;-78
2023/05/06 12:12:23;;;;;;;;;;;;;;;;;;6211000;28;20354;-79
2023/05/06 12:15:24;;;;;;;1.75;0.80;;;;;;;;;;6215018;28;20375;-78
2023/05/06 12:18:27;;;;;;;2.17;0.80;;;;;;;;;;6208891;28;20416;-78
2023/05/06 12:21:28;;;;;;;0.95;0.70;;;;;;;;;;6211025;28;20574;-77
2023/05/06 12:24:30;;;;;;;2.20;0.97;;;;;;;;;;6214797;28;20096;-78
2023/05/06 12:27:33;;;;;;;2.03;0.80;;;;;;;;;;6212435;28;20507;-77
2023/05/06 12:30:34;;;;;;;1.40;0.80;;;;;;;;;;6217514;28;20052;-77
2023/05/06 12:33:47;;;;;;;1.48;0.82;;;;;;;;;;6218570;28;20048;-77
2023/05/06 12:36:50;;;;;;;2.05;0.80;;;;;;;;;;6218704;28;20045;-78
2023/05/06 12:39:51;;;;;;;3.53;0.98;;;;;;;;;;6210780;28;20050;-78
2023/05/06 12:42:54;;;;;;;1.13;0.73;;;;;;;;;;6217810;28;20048;-77
2023/05/06 12:46:03;;;;;;;0.82;0.77;;;;;;;;;;6211413;28;20393;-77
2023/05/06 12:49:05;;;;;;;1.10;0.68;;;;;;;;;;6211658;28;20096;-78
2023/05/06 12:52:10;;;;;;;1.08;0.70;;;;;;;;;;6221075;28;20113;-76
2023/05/06 12:55:12;;;;;;;1.17;0.70;;;;;;;;;;6214261;28;20046;-78
2023/05/06 12:58:17;;;;;;;1.40;0.60;;;;;;;;;;6221105;28;20046;-77
2023/05/06 13:01:20;;;;;;;2.22;0.50;;;;;;;;;;6227839;28;20073;-76
2023/05/06 13:04:22;;;;;;;1.75;0.70;;;;;;;;;;6231352;28;20057;-76
2023/05/06 13:07:24;;;;;;;1.83;0.60;;;;;;;;;;6228963;28;20054;-78
2023/05/06 13:10:25;;;;;;;0.50;0.50;;;;;;;;;;6232600;28;20124;-76
2023/05/06 13:13:27;;;;;;;1.50;0.50;;;;;;;;;;6226319;28;20056;-77
2023/05/06 13:16:30;;;;;;;1.87;0.60;;;;;;;;;;6228071;28;20069;-76
2023/05/06 13:19:32;;;;;;;2.40;0.50;;;;;;;;;;6248336;28;20088;-76
2023/05/06 13:22:34;;;;;;;0.83;0.60;;;;;;;;;;6227402;28;20049;-76
2023/05/06 13:25:51;;;;;;;1.15;0.75;;;;;;;;;;6224717;28;20092;-77
2023/05/06 13:29:04;;;;;;;1.20;0.68;;;;;;;;;;6212278;28;20073;-77
2023/05/06 13:32:06;;;;;;;1.33;0.57;;;;;;;;;;6208645;28;20042;-79
2023/05/06 13:35:09;;;;;;;1.00;0.68;;;;;;;;;;6212732;28;20241;-78
2023/05/06 13:38:11;;;;;;;1.10;0.70;;;;;;;;;;6209431;28;20039;-78
2023/05/06 13:41:13;;;;;;;1.70;0.63;;;;;;;;;;6206583;28;20066;-79
2023/05/06 13:44:15;;;;;;;0.77;0.57;;;;;;;;;;6215094;28;20050;-79
2023/05/06 13:47:19;;;;;;;1.27;0.60;;;;;;;;;;6223275;28;20114;-78
2023/05/06 13:50:21;;;;;;;1.13;0.32;;;;;;;;;;6207527;28;20097;-78
2023/05/06 13:53:22;;;;;;;2.03;0.70;;;;;;;;;;6207625;28;20534;-78
2023/05/06 13:56:24;;;;;;;1.42;0.60;;;;;;;;;;6203118;28;20258;-78
2023/05/06 13:59:26;;;;;;;2.65;0.70;;;;;;;;;;6206406;28;20053;-78
2023/05/06 14:02:28;;;;;;;1.25;0.60;;;;;;;;;;6199083;28;20123;-76
2023/05/06 14:05:29;;;;;;;1.20;0.50;;;;;;;;;;6204669;28;20527;-77
2023/05/06 14:08:31;;;;;;;1.02;0.50;;;;;;;;;;6206285;28;20496;-77
2023/05/06 14:11:33;;;;;;;1.05;0.50;;;;;;;;;;6209102;28;20045;-77
2023/05/06 14:14:35;;;;;;;2.75;0.60;;;;;;;;;;6181389;28;20046;-77
2023/05/06 14:17:37;;;;;;;0.88;0.50;;;;;;;;;;6206919;28;20042;-77
2023/05/06 14:20:38;;;;;;;1.13;0.70;;;;;;;;;;6205355;28;20050;-77
2023/05/06 14:23:40;;;;;;;1.08;0.60;;;;;;;;;;6204998;28;20042;-78
2023/05/06 14:26:44;;;;;;;0.88;0.50;;;;;;;;;;6206008;28;20053;-78
2023/05/06 14:29:46;;;;;;;0.68;0.60;;;;;;;;;;6208432;28;20057;-78
2023/05/06 14:32:48;;;;;;;0.90;0.75;;;;;;;;;;6199904;28;20049;-81
2023/05/06 14:35:53;;;;;;;1.30;0.80;;;;;;;;;;6200911;28;20038;-80
2023/05/06 14:38:55;;;;;;;1.52;0.77;;;;;;;;;;6203170;28;20527;-76
2023/05/06 14:41:56;;;;;;;2.00;1.33;;;;;;;;;;6204283;28;20048;-78
2023/05/06 14:44:58;;;;;;;1.67;1.27;;;;;;;;;;6193391;28;20051;-78
2023/05/06 14:47:59;;;;;;;1.75;1.10;;;;;;;;;;6201874;28;20048;-79
2023/05/06 14:51:01;;;;;;;1.42;1.00;;;;;;;;;;6206059;28;20038;-77
2023/05/06 14:54:03;;;;;;;2.80;1.00;;;;;;;;;;6205298;28;20132;-77
2023/05/06 14:57:04;;;;;;;1.10;0.85;;;;;;;;;;6204636;28;20045;-79
2023/05/06 15:00:13;;;;;;;0.80;0.80;;;;;;;;;;6195279;28;20048;-77
2023/05/06 15:03:15;;;;;;;2.33;0.90;;;;;;;;;;6200448;28;20054;-79
2023/05/06 15:06:17;;;;;;;1.37;0.90;;;;;;;;;;6206882;28;20076;-78
2023/05/06 15:09:18;;;;;;;5.22;3.78;;;;;;;;;;6208089;28;20437;-80
2023/05/06 15:12:20;;;;;;;1.50;0.93;;;;;;;;;;6184370;28;20054;-78
2023/05/06 15:15:21;;;;;;;2.05;0.95;;;;;;;;;;6196733;28;20069;-78
2023/05/06 15:18:23;;;;;;;2.75;0.95;;;;;;;;;;6199141;28;20046;-78
2023/05/06 15:21:26;;;;;;;3.17;1.20;;;;;;;;;;6204334;28;20038;-79
2023/05/06 15:24:27;;;;;;;;;;;;;;;;;;6199232;28;20046;-77
2023/05/06 15:27:30;;;;;;;1.58;1.40;;;;;;;;;;6203431;28;19926;-78
2023/05/06 15:30:32;;;;;;;3.65;0.95;;;;;;;;;;6200741;28;20170;-79
2023/05/06 15:33:33;;;;;;;1.63;0.90;;;;;;;;;;6205400;28;20053;-78
2023/05/06 15:36:35;;;;;;;1.65;0.98;;;;;;;;;;6211294;28;20042;-79
2023/05/06 15:39:37;;;;;;;1.92;0.90;;;;;;;;;;6210232;28;20209;-79
2023/05/06 15:42:39;;;;;;;1.27;1.05;;;;;;;;;;6207956;28;20113;-78
2023/05/06 15:45:41;;;;;;;3.70;0.97;;;;;;;;;;6199266;28;20176;-79
2023/05/06 15:48:42;;;;;;;2.67;0.95;;;;;;;;;;6202671;28;20105;-78
2023/05/06 15:51:44;;;;;;;2.20;1.02;;;;;;;;;;6199728;28;20129;-79
2023/05/06 15:54:45;;;;;;;2.03;1.08;;;;;;;;;;6203546;28;20172;-78
2023/05/06 15:57:52;;;;;;;2.10;1.00;;;;;;;;;;6203753;28;20045;-79
2023/05/06 16:00:53;;;;;;;4.28;0.98;;;;;;;;;;6189885;28;20058;-78
2023/05/06 16:03:55;;;;;;;2.00;1.00;;;;;;;;;;6202003;28;20038;-77
2023/05/06 16:06:57;;;;;;;2.58;1.48;;;;;;;;;;6176357;28;20039;-77
2023/05/06 16:09:59;;;;;;;2.65;1.70;;;;;;;;;;6199310;28;20046;-79
2023/05/06 16:13:00;;;;;;;3.97;2.17;;;;;;;;;;6204791;28;20916;-79
2023/05/06 16:16:02;;;;;;;1.30;0.80;;;;;;;;;;6191073;28;20061;-77
2023/05/06 16:19:04;;;;;;;2.35;0.77;;;;;;;;;;6204617;28;20408;-78
2023/05/06 16:22:05;;;;;;;0.95;0.65;;;;;;;;;;6206615;28;20065;-79
2023/05/06 16:25:07;;;;;;;2.05;1.20;;;;;;;;;;6184353;28;20038;-79
2023/05/06 16:28:09;;;;;;;2.55;1.58;;;;;;;;;;6195800;28;20049;-79
2023/05/06 16:31:11;;;;;;;1.98;1.38;;;;;;;;;;6170933;28;20416;-79
2023/05/06 16:34:13;;;;;;;3.00;1.00;;;;;;;;;;6172741;28;20125;-79
2023/05/06 16:37:15;;;;;;;1.52;0.90;;;;;;;;;;6203484;28;20076;-78
2023/05/06 16:40:19;;;;;;;2.47;1.10;;;;;;;;;;6181925;28;20054;-78
2023/05/06 16:43:21;;;;;;;2.05;1.05;;;;;;;;;;6203386;28;20043;-78
2023/05/06 16:46:23;;;;;;;1.83;1.20;;;;;;;;;;6198198;28;20046;-78
2023/05/06 16:49:26;;;;;;;1.55;1.00;;;;;;;;;;6205193;28;20571;-78
2023/05/06 16:52:28;;;;;;;;;;;;;;;;;;6189407;28;20132;-79
2023/05/06 16:55:31;;;;;;;2.47;1.90;;;;;;;;;;6198173;28;19928;-79
2023/05/06 16:58:33;;;;;;;6.30;1.60;;;;;;;;;;6202748;28;20038;-78
2023/05/06 17:01:34;;;;;;;2.38;1.20;;;;;;;;;;6199193;28;20056;-79
2023/05/06 17:04:36;;;;;;;2.75;1.30;;;;;;;;;;6203965;28;20046;-79
2023/05/06 17:07:38;;;;;;;2.20;1.70;;;;;;;;;;6201291;28;20046;-78
2023/05/06 17:10:39;;;;;;;3.20;1.10;;;;;;;;;;6191765;28;20599;-79
2023/05/06 17:13:41;;;;;;;2.05;1.10;;;;;;;;;;6199812;28;21536;-78
2023/05/06 17:16:42;;;;;;;2.60;1.40;;;;;;;;;;6198055;28;20552;-78
2023/05/06 17:19:44;;;;;;;6.53;3.08;;;;;;;;;;6203059;28;20864;-79
2023/05/06 17:22:46;;;;;;;4.78;2.70;;;;;;;;;;6204968;28;20053;-79
2023/05/06 17:25:47;;;;;;;4.03;3.38;;;;;;;;;;6200045;28;20037;-79
2023/05/06 17:28:49;;;;;;;4.38;2.90;;;;;;;;;;6210289;28;20453;-78
2023/05/06 17:31:51;;;;;;;2.95;1.80;;;;;;;;;;6201092;28;20415;-79
2023/05/06 17:34:53;;;;;;;3.40;1.67;;;;;;;;;;6200000;28;20037;-79
2023/05/06 17:37:55;;;;;;;5.00;2.47;;;;;;;;;;6206015;28;20053;-79
2023/05/06 17:40:56;;;;;;;3.05;1.65;;;;;;;;;;6201183;28;20038;-79
2023/05/06 17:43:58;;;;;;;3.05;1.75;;;;;;;;;;6188411;28;20046;-79
2023/05/06 17:47:00;;;;;;;2.50;1.73;;;;;;;;;;6183041;28;20136;-78
2023/05/06 17:50:02;;;;;;;5.60;1.90;;;;;;;;;;6206186;28;20045;-79
2023/05/06 17:53:03;;;;;;;3.63;2.47;;;;;;;;;;6202431;28;20049;-78
2023/05/06 17:56:05;;;;;;;2.70;2.17;;;;;;;;;;6207182;28;20048;-78
2023/05/06 17:59:07;;;;;;;4.85;3.25;;;;;;;;;;6199602;28;20050;-78
2023/05/06 18:02:12;;;;;;;5.05;3.42;;;;;;;;;;6186147;28;20050;-78
2023/05/06 18:05:15;;;;;;;3.75;3.05;;;;;;;;;;6197008;28;20050;-78
2023/05/06 18:08:17;;;;;;;3.25;2.95;;;;;;;;;;6191597;28;20050;-79
2023/05/06 18:11:18;;;;;;;3.72;2.47;;;;;;;;;;6213228;28;20056;-78
2023/05/06 18:14:20;;;;;;;2.38;2.17;;;;;;;;;;6198979;28;20054;-78
2023/05/06 18:17:21;;;;;;;4.47;2.72;;;;;;;;;;6193808;28;20058;-77
2023/05/06 18:20:23;;;;;;;4.57;3.17;;;;;;;;;;6205412;28;20049;-77
2023/05/06 18:23:25;;;;;;;4.40;3.13;;;;;;;;;;6196395;28;20164;-78
2023/05/06 18:26:27;;;;;;;3.58;2.67;;;;;;;;;;6196261;28;20046;-77
2023/05/06 18:29:44;;;;;;;4.20;2.55;;;;;;;;;;6193770;28;20050;-77
2023/05/06 18:32:46;;;;;;;6.30;3.97;;;;;;;;;;6199523;28;20050;-77
2023/05/06 18:35:51;;;;;;;3.55;2.70;;;;;;;;;;6196228;28;20046;-78
2023/05/06 18:38:52;;;;;;;4.75;2.70;;;;;;;;;;6199654;28;20049;-77
2023/05/06 18:41:54;;;;;;;4.68;3.28;;;;;;;;;;6194338;28;20060;-77
2023/05/06 18:44:56;;;;;;;5.63;3.10;;;;;;;;;;6180829;28;20496;-76
2023/05/06 18:47:58;;;;;;;5.07;3.40;;;;;;;;;;6200698;28;20045;-77
2023/05/06 18:51:18;;;;;;;5.70;2.58;;;;;;;;;;6200579;28;20578;-77
2023/05/06 18:54:20;;;;;;;3.80;2.95;;;;;;;;;;6196702;28;20432;-76
2023/05/06 18:57:22;;;;;;;7.18;4.30;;;;;;;;;;6198892;28;20077;-77